createdAt,value
2023-02-23T00:01:43.564Z,9.80
2023-02-23T00:04:11.422Z,10.32
2023-02-23T00:06:39.657Z,10.00
2023-02-23T00:09:22.490Z,10.70
2023-02-23T00:11:50.692Z,11.30
2023-02-23T00:14:18.489Z,11.00
2023-02-23T00:16:46.766Z,10.27
2023-02-23T00:19:14.779Z,10.68
2023-02-23T00:21:43.224Z,10.60
2023-02-23T00:24:15.289Z,10.20
2023-02-23T00:26:45.196Z,10.70
2023-02-23T00:29:17.073Z,11.93
2023-02-23T00:31:45.535Z,10.95
2023-02-23T00:34:15.453Z,10.23
2023-02-23T00:36:44.046Z,11.15
2023-02-23T00:39:19.705Z,11.80
2023-02-23T00:41:47.845Z,11.48
2023-02-23T00:44:16.240Z,11.68
2023-02-23T00:46:45.622Z,11.32
2023-02-23T00:49:14.636Z,11.65
2023-02-23T00:51:42.644Z,11.20
2023-02-23T00:54:15.684Z,11.25
2023-02-23T00:56:43.950Z,12.00
2023-02-23T00:59:12.640Z,11.52
2023-02-23T01:01:41.751Z,11.90
2023-02-23T01:04:10.326Z,11.80
2023-02-23T01:06:39.547Z,12.00
2023-02-23T01:09:09.606Z,10.50
2023-02-23T01:11:39.126Z,11.80
2023-02-23T01:14:07.277Z,11.25
2023-02-23T01:16:38.724Z,11.10
2023-02-23T01:19:07.458Z,12.15
2023-02-23T01:21:38.172Z,11.35
2023-02-23T01:24:07.192Z,11.48
2023-02-23T01:26:38.910Z,11.05
2023-02-23T01:29:09.402Z,10.45
2023-02-23T01:31:38.554Z,11.52
2023-02-23T01:34:07.691Z,11.52
2023-02-23T01:36:37.058Z,11.88
2023-02-23T01:39:07.534Z,11.45
2023-02-23T01:41:37.896Z,10.88
2023-02-23T01:44:07.654Z,11.45
2023-02-23T01:46:38.934Z,11.07
2023-02-23T01:49:09.880Z,10.40
2023-02-23T01:51:43.759Z,10.45
2023-02-23T01:54:14.503Z,10.73
2023-02-23T01:56:46.293Z,10.88
2023-02-23T01:59:16.384Z,11.23
2023-02-23T02:01:45.405Z,10.45
2023-02-23T02:04:16.382Z,10.95
2023-02-23T02:06:48.760Z,11.05
2023-02-23T02:09:19.291Z,10.70
2023-02-23T02:11:54.041Z,11.15
2023-02-23T02:14:25.279Z,11.00
2023-02-23T02:17:13.519Z,11.77
2023-02-23T02:20:06.766Z,11.20
2023-02-23T02:22:49.279Z,11.40
2023-02-23T02:25:42.458Z,10.70
2023-02-23T02:28:44.287Z,10.93
2023-02-23T02:32:02.671Z,11.27
2023-02-23T02:34:57.599Z,9.88
2023-02-23T02:37:48.676Z,10.38
2023-02-23T02:40:28.128Z,10.60
2023-02-23T02:43:08.772Z,11.20
2023-02-23T02:45:44.073Z,10.23
2023-02-23T02:48:18.188Z,11.50
2023-02-23T02:50:52.474Z,11.10
2023-02-23T02:53:27.711Z,11.02
2023-02-23T02:55:59.670Z,10.57
2023-02-23T02:58:28.060Z,10.40
2023-02-23T03:01:13.223Z,10.18
2023-02-23T03:04:01.309Z,10.05
2023-02-23T03:06:50.629Z,10.85
2023-02-23T03:09:48.284Z,11.05
2023-02-23T03:12:44.036Z,10.23
2023-02-23T03:15:42.538Z,11.18
2023-02-23T03:18:39.588Z,10.80
2023-02-23T03:21:32.630Z,9.77
2023-02-23T03:24:27.134Z,10.38
2023-02-23T03:27:19.098Z,10.68
2023-02-23T03:30:11.250Z,10.18
2023-02-23T03:33:05.632Z,10.10
2023-02-23T03:35:58.110Z,9.93
2023-02-23T03:38:52.062Z,10.50
2023-02-23T03:41:40.348Z,9.77
2023-02-23T03:44:30.966Z,10.20
2023-02-23T03:47:19.504Z,9.70
2023-02-23T03:50:07.564Z,10.45
2023-02-23T03:52:59.936Z,9.85
2023-02-23T03:55:50.453Z,9.82
2023-02-23T03:58:41.379Z,9.45
2023-02-23T04:01:29.875Z,9.88
2023-02-23T04:04:16.988Z,9.45
2023-02-23T04:07:04.749Z,9.63
2023-02-23T04:09:51.149Z,9.55
2023-02-23T04:12:40.514Z,10.48
2023-02-23T04:15:11.038Z,9.18
2023-02-23T04:17:40.883Z,9.57
2023-02-23T04:20:12.078Z,9.73
2023-02-23T04:22:40.057Z,10.25
2023-02-23T04:25:08.916Z,9.98
2023-02-23T04:27:37.280Z,10.40
2023-02-23T04:30:06.117Z,9.48
2023-02-23T04:32:34.065Z,9.95
2023-02-23T04:35:03.388Z,9.32
2023-02-23T04:37:31.190Z,10.23
2023-02-23T04:39:59.034Z,9.90
2023-02-23T04:42:26.799Z,9.70
2023-02-23T04:44:54.533Z,9.82
2023-02-23T04:47:22.498Z,9.75
2023-02-23T04:49:50.262Z,9.77
2023-02-23T04:52:19.405Z,10.40
2023-02-23T04:54:47.567Z,9.88
2023-02-23T04:57:15.646Z,10.30
2023-02-23T04:59:43.538Z,10.25
2023-02-23T05:02:11.800Z,10.60
2023-02-23T05:04:39.601Z,10.00
2023-02-23T05:07:07.450Z,10.85
2023-02-23T05:09:36.629Z,10.05
2023-02-23T05:12:04.799Z,10.95
2023-02-23T05:14:32.637Z,10.82
2023-02-23T05:17:00.742Z,11.07
2023-02-23T05:19:29.320Z,9.85
2023-02-23T05:21:57.518Z,11.32
2023-02-23T05:24:25.869Z,10.10
2023-02-23T05:26:55.879Z,10.23
2023-02-23T05:29:24.328Z,10.57
2023-02-23T05:31:54.077Z,10.77
2023-02-23T05:34:22.514Z,10.13
2023-02-23T05:36:50.797Z,9.68
2023-02-23T05:39:18.886Z,10.63
2023-02-23T05:41:47.287Z,10.30
2023-02-23T05:44:16.539Z,9.93
2023-02-23T05:46:46.237Z,9.40
2023-02-23T05:49:14.456Z,10.30
2023-02-23T05:51:43.277Z,10.02
2023-02-23T05:54:11.513Z,9.70
2023-02-23T05:56:41.059Z,10.10
2023-02-23T05:59:08.969Z,10.68
2023-02-23T06:01:38.535Z,10.05
2023-02-23T06:04:06.892Z,10.73
2023-02-23T06:06:34.882Z,10.10
2023-02-23T06:09:04.410Z,10.57
2023-02-23T06:11:32.301Z,10.48
2023-02-23T06:14:00.450Z,10.05
2023-02-23T06:16:28.650Z,11.05
2023-02-23T06:18:58.111Z,9.95
2023-02-23T06:21:26.213Z,10.93
2023-02-23T06:23:54.275Z,9.77
2023-02-23T06:26:22.318Z,10.15
2023-02-23T06:28:50.761Z,10.45
2023-02-23T06:31:19.046Z,10.02
2023-02-23T06:33:47.750Z,10.38
2023-02-23T06:36:16.943Z,9.93
2023-02-23T06:38:45.703Z,10.77
2023-02-23T06:41:14.374Z,10.82
2023-02-23T06:43:42.301Z,10.35
2023-02-23T06:46:10.274Z,10.25
2023-02-23T06:48:38.477Z,11.82
2023-02-23T06:51:06.750Z,10.63
2023-02-23T06:53:36.041Z,10.88
2023-02-23T06:56:04.505Z,11.23
2023-02-23T06:58:32.422Z,10.85
2023-02-23T07:01:00.542Z,10.85
2023-02-23T07:03:28.369Z,11.55
2023-02-23T07:05:56.314Z,11.27
2023-02-23T07:08:24.320Z,10.77
2023-02-23T07:10:53.736Z,11.88
2023-02-23T07:13:22.140Z,11.57
2023-02-23T07:15:50.867Z,11.55
2023-02-23T07:18:19.062Z,11.40
2023-02-23T07:20:47.024Z,11.10
2023-02-23T07:23:15.282Z,11.35
2023-02-23T07:25:43.519Z,12.05
2023-02-23T07:28:14.431Z,11.88
2023-02-23T07:30:42.582Z,11.07
2023-02-23T07:33:10.988Z,12.13
2023-02-23T07:35:39.220Z,11.85
2023-02-23T07:38:07.585Z,11.13
2023-02-23T07:40:35.740Z,13.13
2023-02-23T07:43:03.694Z,12.65
2023-02-23T07:45:33.279Z,11.48
2023-02-23T07:48:01.236Z,11.40
2023-02-23T07:50:29.490Z,10.75
2023-02-23T07:52:57.518Z,12.20
2023-02-23T07:55:26.083Z,12.38
2023-02-23T07:57:54.477Z,12.05
2023-02-23T08:00:22.950Z,11.45
2023-02-23T08:02:53.034Z,11.48
2023-02-23T08:05:21.328Z,11.32
2023-02-23T08:07:49.610Z,10.80
2023-02-23T08:10:17.928Z,11.00
2023-02-23T08:12:46.083Z,10.60
2023-02-23T08:15:14.056Z,10.65
2023-02-23T08:17:42.387Z,10.75
2023-02-23T08:20:13.026Z,10.52
2023-02-23T08:22:49.317Z,11.07
2023-02-23T08:25:20.153Z,10.35
2023-02-23T08:27:48.854Z,10.63
2023-02-23T08:30:17.514Z,11.02
2023-02-23T08:32:45.832Z,11.27
2023-02-23T08:35:15.711Z,10.93
2023-02-23T08:37:43.773Z,10.73
2023-02-23T08:40:15.480Z,11.00
2023-02-23T08:42:43.656Z,11.20
2023-02-23T08:45:12.851Z,13.02
2023-02-23T08:47:40.744Z,16.60
2023-02-23T08:50:10.883Z,12.88
2023-02-23T08:52:40.937Z,16.35
2023-02-23T08:55:10.593Z,15.80
2023-02-23T08:57:39.044Z,17.90
2023-02-23T09:00:14.069Z,22.75
2023-02-23T09:02:42.372Z,15.60
2023-02-23T09:05:11.140Z,19.65
2023-02-23T09:07:44.806Z,16.70
2023-02-23T09:10:14.808Z,20.92
2023-02-23T09:12:43.108Z,17.60
2023-02-23T09:15:12.055Z,13.73
2023-02-23T09:17:43.017Z,13.38
2023-02-23T09:20:13.509Z,14.82
2023-02-23T09:22:45.548Z,16.30
2023-02-23T09:25:18.479Z,13.88
2023-02-23T09:27:46.883Z,12.60
2023-02-23T09:30:19.686Z,13.90
2023-02-23T09:32:48.854Z,14.10
2023-02-23T09:35:18.430Z,15.30
2023-02-23T09:37:49.198Z,14.73
2023-02-23T09:40:19.003Z,20.40
2023-02-23T09:42:55.065Z,24.85
2023-02-23T09:45:30.974Z,25.25
2023-02-23T09:48:11.267Z,22.38
2023-02-23T09:50:43.107Z,23.77
2023-02-23T09:53:25.535Z,21.50
2023-02-23T09:55:55.955Z,21.13
2023-02-23T09:58:25.885Z,22.85
2023-02-23T10:01:18.106Z,22.30
2023-02-23T10:03:55.209Z,22.92
2023-02-23T10:06:23.532Z,23.23
2023-02-23T10:09:04.831Z,23.50
2023-02-23T10:11:40.797Z,23.90
2023-02-23T10:14:23.378Z,23.50
2023-02-23T10:17:04.664Z,23.00
2023-02-23T10:19:44.463Z,25.40
2023-02-23T10:22:13.406Z,23.00
2023-02-23T10:24:45.925Z,23.02
2023-02-23T10:27:18.112Z,23.17
2023-02-23T10:29:51.613Z,21.27
2023-02-23T10:32:25.269Z,20.90
2023-02-23T10:34:56.903Z,23.15
2023-02-23T10:37:25.879Z,23.55
2023-02-23T10:39:55.501Z,26.77
2023-02-23T10:42:28.936Z,24.75
2023-02-23T10:44:58.111Z,44.15
2023-02-23T10:47:28.760Z,44.25
2023-02-23T10:49:58.966Z,37.72
2023-02-23T10:52:34.578Z,37.20
2023-02-23T10:55:06.145Z,34.53
2023-02-23T10:57:39.809Z,38.25
2023-02-23T11:00:30.455Z,31.42
2023-02-23T11:02:59.846Z,29.05
2023-02-23T11:05:37.569Z,30.25
2023-02-23T11:08:20.939Z,28.77
2023-02-23T11:11:18.987Z,31.08
2023-02-23T11:13:49.042Z,31.40
2023-02-23T11:16:19.574Z,31.40
2023-02-23T11:18:54.926Z,31.10
2023-02-23T11:21:26.358Z,32.15
2023-02-23T11:23:56.764Z,32.58
2023-02-23T11:26:33.762Z,31.10
2023-02-23T11:29:11.201Z,31.52
2023-02-23T11:31:40.978Z,32.30
2023-02-23T11:34:09.383Z,30.95
2023-02-23T11:36:38.685Z,32.17
2023-02-23T11:39:22.751Z,30.65
2023-02-23T11:42:17.042Z,30.67
2023-02-23T11:44:50.438Z,30.50
2023-02-23T11:47:22.087Z,30.83
2023-02-23T11:49:51.449Z,30.48
2023-02-23T11:52:21.950Z,28.92
2023-02-23T11:54:55.038Z,30.33
2023-02-23T11:57:27.403Z,31.33
2023-02-23T11:59:57.122Z,30.15
2023-02-23T12:02:26.689Z,29.75
2023-02-23T12:05:04.043Z,30.50
2023-02-23T12:07:41.385Z,30.45
2023-02-23T12:10:17.729Z,29.35
2023-02-23T12:12:54.899Z,29.63
2023-02-23T12:15:30.613Z,31.73
2023-02-23T12:18:01.927Z,30.38
2023-02-23T12:20:34.190Z,29.52
2023-02-23T12:23:08.430Z,30.40
2023-02-23T12:25:39.753Z,29.98
2023-02-23T12:28:19.205Z,29.58
2023-02-23T12:30:51.856Z,28.17
2023-02-23T12:33:26.138Z,27.35
2023-02-23T12:36:00.353Z,28.45
2023-02-23T12:38:35.495Z,27.67
2023-02-23T12:41:08.030Z,28.08
2023-02-23T12:43:49.111Z,27.33
2023-02-23T12:46:22.613Z,28.00
2023-02-23T12:48:58.272Z,27.35
2023-02-23T12:51:31.042Z,28.27
2023-02-23T12:53:59.411Z,28.50
2023-02-23T12:56:45.111Z,26.90
2023-02-23T12:59:26.458Z,27.30
2023-02-23T13:01:58.457Z,26.70
2023-02-23T13:04:54.551Z,25.98
2023-02-23T13:07:25.564Z,26.75
2023-02-23T13:10:06.840Z,25.85
2023-02-23T13:12:52.518Z,25.25
2023-02-23T13:15:28.718Z,24.55
2023-02-23T13:18:01.541Z,24.00
2023-02-23T13:20:34.999Z,24.45
2023-02-23T13:23:12.517Z,24.88
2023-02-23T13:25:48.392Z,24.80
2023-02-23T13:28:22.067Z,23.88
2023-02-23T13:30:51.632Z,23.00
2023-02-23T13:33:41.951Z,23.50
2023-02-23T13:36:12.668Z,23.40
2023-02-23T13:38:46.179Z,22.88
2023-02-23T13:41:25.327Z,22.98
2023-02-23T13:44:01.618Z,21.85
2023-02-23T13:46:42.149Z,23.05
2023-02-23T13:49:24.748Z,22.05
2023-02-23T13:51:55.822Z,22.92
2023-02-23T13:54:29.614Z,22.67
2023-02-23T13:57:01.272Z,22.77
2023-02-23T13:59:33.049Z,21.60
2023-02-23T14:02:21.658Z,21.77
2023-02-23T14:04:49.714Z,22.33
2023-02-23T14:07:23.244Z,22.02
2023-02-23T14:09:56.408Z,22.85
2023-02-23T14:12:27.806Z,21.63
2023-02-23T14:14:56.080Z,22.45
2023-02-23T14:17:44.219Z,21.65
2023-02-23T14:20:29.549Z,21.70
2023-02-23T14:23:28.486Z,21.63
2023-02-23T14:26:16.550Z,20.08
2023-02-23T14:28:49.316Z,20.63
2023-02-23T14:31:25.840Z,19.77
2023-02-23T14:34:01.997Z,20.80
2023-02-23T14:36:36.556Z,19.95
2023-02-23T14:39:10.341Z,19.95
2023-02-23T14:41:44.848Z,19.75
2023-02-23T14:44:29.081Z,20.00
2023-02-23T14:47:03.905Z,19.80
2023-02-23T14:49:39.154Z,18.77
2023-02-23T14:52:09.297Z,19.02
2023-02-23T14:54:39.696Z,20.67
2023-02-23T14:57:18.498Z,20.23
2023-02-23T14:59:47.716Z,19.23
2023-02-23T15:02:20.815Z,19.13
2023-02-23T15:04:50.523Z,19.40
2023-02-23T15:07:24.309Z,23.43
2023-02-23T15:09:54.548Z,24.15
2023-02-23T15:12:27.117Z,22.02
2023-02-23T15:14:58.867Z,21.25
2023-02-23T15:17:30.670Z,20.73
2023-02-23T15:20:15.491Z,21.30
2023-02-23T15:22:45.727Z,21.58
2023-02-23T15:25:17.010Z,20.25
2023-02-23T15:27:46.537Z,21.48
2023-02-23T15:30:23.980Z,22.08
2023-02-23T15:33:01.548Z,20.98
2023-02-23T15:35:33.585Z,22.02
2023-02-23T15:38:14.011Z,21.27
2023-02-23T15:40:53.695Z,22.58
2023-02-23T15:43:21.687Z,21.67
2023-02-23T15:45:52.162Z,22.70
2023-02-23T15:48:23.456Z,20.02
2023-02-23T15:50:55.102Z,21.45
2023-02-23T15:53:29.960Z,22.95
2023-02-23T15:56:05.040Z,22.23
2023-02-23T15:58:44.460Z,22.85
2023-02-23T16:01:24.825Z,22.13
2023-02-23T16:04:02.905Z,20.10
2023-02-23T16:06:37.367Z,21.27
2023-02-23T16:09:20.598Z,21.45
2023-02-23T16:11:51.505Z,22.67
2023-02-23T16:14:21.917Z,22.33
2023-02-23T16:17:01.318Z,20.67
2023-02-23T16:19:40.609Z,21.83
2023-02-23T16:22:21.151Z,19.45
2023-02-23T16:24:57.011Z,18.98
2023-02-23T16:27:28.418Z,19.45
2023-02-23T16:30:09.082Z,19.30
2023-02-23T16:32:45.742Z,19.25
2023-02-23T16:35:21.902Z,19.08
2023-02-23T16:38:06.009Z,18.92
2023-02-23T16:40:37.464Z,18.88
2023-02-23T16:43:06.071Z,20.13
2023-02-23T16:45:35.208Z,18.75
2023-02-23T16:48:05.774Z,19.92
2023-02-23T16:50:37.688Z,19.58
2023-02-23T16:53:17.443Z,20.02
2023-02-23T16:55:53.477Z,20.00
2023-02-23T16:58:27.390Z,18.25
2023-02-23T17:01:00.368Z,18.30
2023-02-23T17:03:32.664Z,17.70
2023-02-23T17:06:15.291Z,18.73
2023-02-23T17:08:57.255Z,18.65
2023-02-23T17:36:38.883Z,17.40
2023-02-23T17:42:19.734Z,17.13
2023-02-23T17:52:57.235Z,16.80
2023-02-23T19:37:13.684Z,14.70
2023-02-23T19:42:21.376Z,15.02
2023-02-23T19:44:51.007Z,14.48
2023-02-23T19:47:23.097Z,14.02
2023-02-23T19:49:59.306Z,15.77
2023-02-23T19:53:02.754Z,15.27
2023-02-23T19:55:45.408Z,14.60
2023-02-23T19:58:14.314Z,14.82
2023-02-23T20:00:50.436Z,15.55
2023-02-23T20:05:23.319Z,15.05
2023-02-23T20:06:50.041Z,15.10
2023-02-23T20:09:25.593Z,15.10
2023-02-23T20:11:59.833Z,14.88
2023-02-23T20:14:28.353Z,15.88
2023-02-23T20:16:56.943Z,16.25
2023-02-23T20:19:29.593Z,15.13
2023-02-23T20:22:18.430Z,16.40
2023-02-23T20:25:00.881Z,15.70
2023-02-23T20:27:33.373Z,14.93
2023-02-23T20:30:05.794Z,16.02
2023-02-23T20:32:36.861Z,15.52
2023-02-23T20:35:06.287Z,17.40
2023-02-23T20:37:35.037Z,16.17
2023-02-23T20:40:18.907Z,15.82
2023-02-23T20:42:49.089Z,15.23
2023-02-23T20:45:20.652Z,16.75
2023-02-23T20:48:00.417Z,16.48
2023-02-23T20:50:34.101Z,14.93
2023-02-23T20:53:03.230Z,15.52
2023-02-23T20:55:34.133Z,14.38
2023-02-23T20:58:02.588Z,14.93
2023-02-23T21:00:33.042Z,15.95
2023-02-23T21:03:02.554Z,16.15
2023-02-23T21:05:32.571Z,15.50
2023-02-23T21:08:02.607Z,16.00
2023-02-23T21:10:34.011Z,17.50
2023-02-23T21:13:02.778Z,17.23
2023-02-23T21:15:31.176Z,17.20
2023-02-23T21:18:00.033Z,17.80
2023-02-23T21:20:28.804Z,15.63
2023-02-23T21:22:57.716Z,16.90
2023-02-23T21:25:27.773Z,17.15
2023-02-23T21:27:57.204Z,16.75
2023-02-23T21:30:28.412Z,15.88
2023-02-23T21:32:57.365Z,15.63
2023-02-23T21:35:26.067Z,15.05
2023-02-23T21:37:54.622Z,13.07
2023-02-23T21:40:23.635Z,13.43
2023-02-23T21:42:52.644Z,12.85
2023-02-23T21:45:22.797Z,13.32
2023-02-23T21:47:51.236Z,11.82
2023-02-23T21:50:21.244Z,13.40
2023-02-23T21:52:54.202Z,13.13
2023-02-23T21:55:22.886Z,11.23
2023-02-23T21:57:52.125Z,11.85
2023-02-23T22:00:22.971Z,10.65
2023-02-23T22:02:52.295Z,10.27
2023-02-23T22:05:21.522Z,9.35
2023-02-23T22:07:50.877Z,9.63
2023-02-23T22:10:20.476Z,9.05
2023-02-23T22:12:50.126Z,8.93
2023-02-23T22:15:18.438Z,8.82
2023-02-23T22:17:47.812Z,9.07
2023-02-23T22:20:20.115Z,9.93
2023-02-23T22:22:50.330Z,8.32
2023-02-23T22:25:20.590Z,7.75
2023-02-23T22:27:49.028Z,8.70
2023-02-23T22:30:20.258Z,9.02
2023-02-23T22:32:50.417Z,8.25
2023-02-23T22:35:19.073Z,6.60
2023-02-23T22:37:47.617Z,7.68
2023-02-23T22:40:17.130Z,6.20
2023-02-23T22:42:48.309Z,5.60
2023-02-23T22:45:17.590Z,6.90
2023-02-23T22:47:46.160Z,6.45
2023-02-23T22:50:18.102Z,6.50
2023-02-23T22:52:47.590Z,6.30
2023-02-23T22:55:16.254Z,5.30
2023-02-23T22:57:46.215Z,5.10
2023-02-23T23:00:17.748Z,4.97
2023-02-23T23:02:46.028Z,4.93
2023-02-23T23:05:16.295Z,4.70
2023-02-23T23:07:46.889Z,4.90
2023-02-23T23:10:17.187Z,5.32
2023-02-23T23:12:46.888Z,5.07
2023-02-23T23:15:17.319Z,5.53
2023-02-23T23:17:48.674Z,4.75
2023-02-23T23:20:23.411Z,4.60
2023-02-23T23:22:51.654Z,4.13
2023-02-23T23:25:22.989Z,4.63
2023-02-23T23:27:53.807Z,4.32
2023-02-23T23:30:26.304Z,4.47
2023-02-23T23:32:54.710Z,4.22
2023-02-23T23:35:26.122Z,5.07
2023-02-23T23:37:54.736Z,4.63
2023-02-23T23:40:24.872Z,5.13
2023-02-23T23:42:54.946Z,4.15
2023-02-23T23:45:25.695Z,4.93
2023-02-23T23:47:53.984Z,4.43
2023-02-23T23:50:27.197Z,5.28
2023-02-23T23:52:57.272Z,4.65
2023-02-23T23:55:31.294Z,4.55
2023-02-23T23:58:00.619Z,4.20
